createdAt,value
2022-10-14T00:02:17.876Z,8.43
2022-10-14T00:04:44.384Z,8.45
2022-10-14T00:07:10.846Z,8.46
2022-10-14T00:09:37.411Z,8.53
2022-10-14T00:12:04.220Z,8.58
2022-10-14T00:14:30.660Z,8.57
2022-10-14T00:16:57.015Z,8.46
2022-10-14T00:19:23.561Z,8.53
2022-10-14T00:21:49.979Z,8.55
2022-10-14T00:24:17.441Z,8.56
2022-10-14T00:26:43.975Z,8.56
2022-10-14T00:29:17.121Z,8.60
2022-10-14T00:31:44.795Z,8.64
2022-10-14T00:34:15.905Z,8.65
2022-10-14T00:36:43.049Z,8.60
2022-10-14T00:39:09.916Z,8.61
2022-10-14T00:41:37.110Z,8.57
2022-10-14T00:44:28.388Z,8.60
2022-10-14T00:46:55.990Z,8.62
2022-10-14T00:49:48.859Z,8.59
2022-10-14T00:52:20.057Z,8.60
2022-10-14T00:54:54.449Z,8.61
2022-10-14T00:57:21.954Z,8.64
2022-10-14T00:59:49.045Z,8.69
2022-10-14T01:02:15.445Z,8.74
2022-10-14T01:04:44.072Z,8.77
2022-10-14T01:07:45.187Z,8.77
2022-10-14T01:10:50.718Z,8.78
2022-10-14T01:13:45.309Z,8.77
2022-10-14T01:16:30.563Z,8.75
2022-10-14T01:19:18.509Z,8.79
2022-10-14T01:22:03.744Z,8.83
2022-10-14T01:25:00.652Z,8.87
2022-10-14T01:28:04.032Z,8.91
2022-10-14T01:30:37.242Z,8.95
2022-10-14T01:33:08.933Z,9.02
2022-10-14T01:35:43.637Z,9.03
2022-10-14T01:38:28.150Z,9.03
2022-10-14T01:41:10.173Z,8.99
2022-10-14T01:43:40.226Z,8.87
2022-10-14T01:46:08.092Z,8.99
2022-10-14T01:48:37.538Z,8.99
2022-10-14T01:51:11.280Z,8.97
2022-10-14T01:53:44.060Z,9.01
2022-10-14T01:56:12.034Z,9.02
2022-10-14T01:58:40.311Z,9.06
2022-10-14T02:01:09.494Z,9.05
2022-10-14T02:03:44.843Z,9.04
2022-10-14T02:06:33.254Z,8.91
2022-10-14T02:09:28.153Z,9.03
2022-10-14T02:12:08.987Z,9.00
2022-10-14T02:15:00.059Z,8.83
2022-10-14T02:17:43.877Z,9.02
2022-10-14T02:20:22.847Z,9.02
2022-10-14T02:22:54.950Z,9.06
2022-10-14T02:25:28.751Z,9.07
2022-10-14T02:27:57.382Z,9.08
2022-10-14T02:30:23.849Z,9.05
2022-10-14T02:32:52.459Z,9.06
2022-10-14T02:35:21.286Z,8.92
2022-10-14T02:37:49.497Z,9.04
2022-10-14T02:40:28.786Z,9.02
2022-10-14T02:42:55.473Z,9.02
2022-10-14T02:45:26.008Z,9.04
2022-10-14T02:47:52.808Z,9.02
2022-10-14T02:50:19.843Z,9.02
2022-10-14T02:52:46.886Z,9.02
2022-10-14T02:55:13.647Z,9.00
2022-10-14T02:57:40.075Z,9.04
2022-10-14T03:00:07.022Z,8.98
2022-10-14T03:02:33.524Z,9.09
2022-10-14T03:04:59.924Z,9.13
2022-10-14T03:07:26.634Z,9.18
2022-10-14T03:09:53.020Z,9.24
2022-10-14T03:12:19.923Z,9.26
2022-10-14T03:14:46.494Z,9.34
2022-10-14T03:17:12.966Z,9.41
2022-10-14T03:19:39.408Z,9.42
2022-10-14T03:22:05.796Z,9.44
2022-10-14T03:24:32.170Z,9.46
2022-10-14T03:26:58.661Z,9.48
2022-10-14T03:29:25.169Z,9.52
2022-10-14T03:31:51.638Z,9.54
2022-10-14T03:34:18.021Z,9.59
2022-10-14T03:36:45.523Z,9.58
2022-10-14T03:39:12.530Z,9.63
2022-10-14T03:41:39.233Z,9.65
2022-10-14T03:44:05.940Z,9.69
2022-10-14T03:46:32.321Z,9.70
2022-10-14T03:48:58.722Z,9.74
2022-10-14T03:51:25.515Z,9.75
2022-10-14T03:53:51.858Z,9.79
2022-10-14T03:56:18.310Z,9.79
2022-10-14T03:58:44.725Z,9.80
2022-10-14T04:01:11.118Z,9.83
2022-10-14T04:03:37.483Z,9.82
2022-10-14T04:06:04.028Z,9.86
2022-10-14T04:08:30.419Z,9.83
2022-10-14T04:10:57.038Z,9.84
2022-10-14T04:13:23.405Z,9.85
2022-10-14T04:15:50.063Z,9.85
2022-10-14T04:18:16.730Z,9.87
2022-10-14T04:20:43.348Z,9.85
2022-10-14T04:23:09.737Z,9.86
2022-10-14T04:25:39.304Z,9.71
2022-10-14T04:28:05.893Z,9.83
2022-10-14T04:30:32.377Z,9.84
2022-10-14T04:32:58.788Z,9.84
2022-10-14T04:35:25.180Z,9.78
2022-10-14T04:37:51.524Z,9.87
2022-10-14T04:40:20.421Z,9.90
2022-10-14T04:42:46.949Z,9.89
2022-10-14T04:45:13.506Z,9.88
2022-10-14T04:47:40.666Z,9.90
2022-10-14T04:50:09.461Z,9.94
2022-10-14T04:52:36.931Z,9.95
2022-10-14T04:55:03.598Z,9.97
2022-10-14T04:57:30.000Z,10.01
2022-10-14T04:59:56.553Z,10.05
2022-10-14T05:02:23.357Z,10.06
2022-10-14T05:04:50.181Z,10.06
2022-10-14T05:07:16.619Z,10.11
2022-10-14T05:09:46.316Z,10.11
2022-10-14T05:12:15.507Z,10.13
2022-10-14T05:14:42.327Z,10.15
2022-10-14T05:17:08.874Z,10.15
2022-10-14T05:19:35.436Z,10.10
2022-10-14T05:22:01.810Z,10.12
2022-10-14T05:24:28.211Z,10.18
2022-10-14T05:26:55.629Z,10.20
2022-10-14T05:29:22.014Z,10.18
2022-10-14T05:31:48.459Z,10.20
2022-10-14T05:34:15.011Z,10.28
2022-10-14T05:36:41.453Z,10.25
2022-10-14T05:39:08.495Z,10.30
2022-10-14T05:41:35.039Z,10.31
2022-10-14T05:44:01.427Z,10.37
2022-10-14T05:46:27.773Z,10.29
2022-10-14T05:48:54.159Z,10.34
2022-10-14T05:51:21.254Z,10.39
2022-10-14T05:53:48.503Z,10.45
2022-10-14T05:56:15.304Z,10.47
2022-10-14T05:58:41.774Z,10.43
2022-10-14T06:01:10.301Z,10.52
2022-10-14T06:03:36.730Z,10.50
2022-10-14T06:06:03.236Z,10.55
2022-10-14T06:08:29.634Z,10.54
2022-10-14T06:10:56.153Z,10.55
2022-10-14T06:13:22.719Z,10.55
2022-10-14T06:15:49.427Z,10.46
2022-10-14T06:18:15.798Z,10.54
2022-10-14T06:20:42.256Z,10.54
2022-10-14T06:23:08.683Z,10.54
2022-10-14T06:25:36.281Z,10.61
2022-10-14T06:28:05.206Z,10.65
2022-10-14T06:30:32.386Z,10.67
2022-10-14T06:32:58.909Z,10.68
2022-10-14T06:35:25.417Z,10.68
2022-10-14T06:37:51.837Z,10.73
2022-10-14T06:40:18.474Z,10.76
2022-10-14T06:42:45.943Z,10.75
2022-10-14T06:45:12.581Z,10.76
2022-10-14T06:47:39.415Z,10.81
2022-10-14T06:50:06.226Z,10.84
2022-10-14T06:52:32.741Z,10.88
2022-10-14T06:54:59.427Z,10.91
2022-10-14T06:57:25.810Z,10.88
2022-10-14T06:59:52.189Z,10.95
2022-10-14T07:02:18.553Z,10.97
2022-10-14T07:04:45.039Z,11.02
2022-10-14T07:07:11.420Z,10.97
2022-10-14T07:09:37.927Z,11.06
2022-10-14T07:12:04.378Z,11.16
2022-10-14T07:14:30.802Z,11.15
2022-10-14T07:16:57.279Z,11.14
2022-10-14T07:19:23.765Z,11.13
2022-10-14T07:21:50.161Z,11.13
2022-10-14T07:24:16.607Z,11.23
2022-10-14T07:26:43.095Z,11.22
2022-10-14T07:29:09.626Z,11.22
2022-10-14T07:31:36.174Z,11.30
2022-10-14T07:34:02.796Z,11.40
2022-10-14T07:36:29.740Z,11.44
2022-10-14T07:38:56.277Z,11.42
2022-10-14T07:41:25.018Z,11.20
2022-10-14T07:43:58.491Z,11.44
2022-10-14T07:46:34.767Z,11.42
2022-10-14T07:49:07.634Z,11.61
2022-10-14T07:51:34.586Z,11.65
2022-10-14T07:54:03.057Z,11.65
2022-10-14T07:56:29.608Z,11.78
2022-10-14T07:58:57.899Z,11.82
2022-10-14T08:01:24.738Z,11.37
2022-10-14T08:03:52.070Z,11.28
2022-10-14T08:06:19.023Z,11.28
2022-10-14T08:08:45.789Z,11.60
2022-10-14T08:11:15.368Z,11.35
2022-10-14T08:13:45.155Z,11.44
2022-10-14T08:16:19.431Z,11.14
2022-10-14T08:18:46.894Z,11.23
2022-10-14T08:21:13.718Z,11.11
2022-10-14T08:23:40.203Z,11.29
2022-10-14T08:26:16.983Z,11.50
2022-10-14T08:28:43.539Z,11.71
2022-10-14T08:31:09.976Z,11.70
2022-10-14T08:33:36.537Z,11.64
2022-10-14T08:36:03.079Z,11.47
2022-10-14T08:38:29.507Z,11.04
2022-10-14T08:41:17.553Z,11.48
2022-10-14T08:44:05.925Z,11.48
2022-10-14T08:46:41.405Z,11.34
2022-10-14T08:49:18.885Z,11.45
2022-10-14T08:51:51.611Z,11.70
2022-10-14T08:54:29.381Z,11.12
2022-10-14T08:56:56.555Z,11.38
2022-10-14T08:59:25.714Z,11.51
2022-10-14T09:01:57.280Z,11.28
2022-10-14T09:04:23.767Z,12.02
2022-10-14T09:06:53.327Z,11.71
2022-10-14T09:09:40.459Z,11.43
2022-10-14T09:12:13.279Z,11.54
2022-10-14T09:14:53.005Z,11.81
2022-10-14T09:17:25.284Z,11.95
2022-10-14T09:19:53.759Z,11.66
2022-10-14T09:22:20.544Z,11.69
2022-10-14T09:24:48.495Z,11.69
2022-10-14T09:27:22.932Z,11.58
2022-10-14T09:29:59.730Z,11.68
2022-10-14T09:32:29.990Z,11.84
2022-10-14T09:34:57.908Z,11.80
2022-10-14T09:37:31.217Z,11.53
2022-10-14T09:40:16.934Z,11.61
2022-10-14T09:43:05.304Z,11.68
2022-10-14T09:45:48.662Z,11.53
2022-10-14T09:48:37.786Z,11.69
2022-10-14T09:51:10.623Z,11.33
2022-10-14T09:53:57.472Z,11.54
2022-10-14T09:56:50.067Z,11.57
2022-10-14T09:59:22.308Z,11.60
2022-10-14T10:01:54.475Z,11.48
2022-10-14T10:04:47.228Z,11.73
2022-10-14T10:07:32.490Z,11.45
2022-10-14T10:10:02.136Z,11.31
2022-10-14T10:12:34.785Z,11.51
2022-10-14T10:15:04.939Z,11.38
2022-10-14T10:17:39.220Z,11.68
2022-10-14T10:20:28.251Z,11.61
2022-10-14T10:22:56.755Z,11.43
2022-10-14T10:25:28.180Z,11.56
2022-10-14T10:27:58.093Z,11.45
2022-10-14T10:30:39.086Z,11.59
2022-10-14T10:33:26.169Z,11.68
2022-10-14T10:36:07.872Z,11.55
2022-10-14T10:38:45.450Z,11.42
2022-10-14T10:41:26.385Z,11.66
2022-10-14T10:44:07.196Z,11.84
2022-10-14T10:46:41.790Z,11.90
2022-10-14T10:49:20.142Z,11.81
2022-10-14T10:52:08.593Z,11.92
2022-10-14T10:54:43.946Z,11.82
2022-10-14T10:57:42.338Z,12.09
2022-10-14T11:00:14.253Z,12.03
2022-10-14T11:02:40.670Z,12.13
2022-10-14T11:05:17.709Z,11.99
2022-10-14T11:08:08.963Z,11.96
2022-10-14T11:11:20.134Z,12.00
2022-10-14T11:13:55.572Z,11.89
2022-10-14T11:16:21.981Z,12.16
2022-10-14T11:18:49.585Z,12.15
2022-10-14T11:21:57.513Z,12.20
2022-10-14T11:25:26.941Z,12.08
2022-10-14T11:28:16.848Z,12.12
2022-10-14T11:30:57.802Z,12.18
2022-10-14T11:33:57.579Z,12.24
2022-10-14T11:36:37.197Z,12.21
2022-10-14T11:39:55.160Z,12.25
2022-10-14T11:42:27.569Z,12.33
2022-10-14T11:45:24.265Z,12.31
2022-10-14T11:47:55.119Z,12.33
2022-10-14T11:50:31.617Z,12.55
2022-10-14T11:53:04.243Z,12.57
2022-10-14T11:55:39.267Z,12.72
2022-10-14T11:58:13.212Z,12.94
2022-10-14T12:00:43.616Z,12.90
2022-10-14T12:03:28.831Z,13.00
2022-10-14T12:06:07.223Z,13.01
2022-10-14T12:08:42.431Z,13.13
2022-10-14T12:11:29.903Z,13.15
2022-10-14T12:14:09.955Z,13.15
2022-10-14T12:16:40.842Z,13.15
2022-10-14T12:19:13.439Z,13.06
2022-10-14T12:21:53.025Z,13.16
2022-10-14T12:24:26.916Z,13.12
2022-10-14T12:27:04.715Z,13.11
2022-10-14T12:29:46.453Z,13.34
2022-10-14T12:32:30.551Z,13.20
2022-10-14T12:34:59.124Z,13.24
2022-10-14T12:37:35.542Z,13.29
2022-10-14T12:40:02.126Z,13.32
2022-10-14T12:42:44.104Z,13.35
2022-10-14T12:45:29.303Z,13.50
2022-10-14T12:48:06.005Z,13.49
2022-10-14T12:50:43.566Z,13.34
2022-10-14T12:53:29.225Z,13.20
2022-10-14T12:56:01.107Z,13.25
2022-10-14T12:58:31.879Z,13.33
2022-10-14T13:01:05.306Z,13.28
2022-10-14T13:03:40.648Z,13.37
2022-10-14T13:06:42.576Z,13.38
2022-10-14T13:09:12.032Z,13.33
2022-10-14T13:11:41.242Z,13.47
2022-10-14T13:14:32.569Z,13.38
2022-10-14T13:17:00.642Z,13.33
2022-10-14T13:19:47.444Z,13.40
2022-10-14T13:22:33.132Z,13.41
2022-10-14T13:25:12.554Z,13.43
2022-10-14T13:27:56.068Z,13.40
2022-10-14T13:30:36.154Z,13.39
2022-10-14T13:33:18.334Z,13.36
2022-10-14T13:36:03.921Z,13.48
2022-10-14T13:38:32.127Z,13.39
2022-10-14T13:40:59.518Z,13.38
2022-10-14T13:43:36.327Z,13.43
2022-10-14T13:46:07.444Z,13.44
2022-10-14T13:48:38.976Z,13.42
2022-10-14T13:51:36.109Z,13.50
2022-10-14T13:54:15.519Z,13.54
2022-10-14T13:56:43.710Z,13.52
2022-10-14T13:59:43.236Z,13.50
2022-10-14T14:02:15.492Z,13.37
2022-10-14T14:04:55.131Z,13.65
2022-10-14T14:08:14.643Z,13.68
2022-10-14T14:10:19.366Z,13.69
2022-10-14T14:12:46.087Z,13.59
2022-10-14T14:15:21.389Z,13.63
2022-10-14T14:17:47.882Z,13.65
2022-10-14T14:20:19.545Z,13.54
2022-10-14T14:22:46.080Z,13.56
2022-10-14T14:25:33.902Z,13.42
2022-10-14T14:28:03.062Z,13.47
2022-10-14T14:30:32.055Z,13.53
2022-10-14T14:33:01.735Z,13.45
2022-10-14T14:35:28.777Z,13.45
2022-10-14T14:37:56.382Z,13.47
2022-10-14T14:40:28.659Z,13.37
2022-10-14T14:42:59.342Z,13.42
2022-10-14T14:45:52.128Z,13.46
2022-10-14T14:48:19.111Z,13.46
2022-10-14T14:50:46.607Z,13.41
2022-10-14T14:53:21.579Z,13.40
2022-10-14T14:56:06.871Z,13.44
2022-10-14T14:58:44.390Z,13.45
2022-10-14T15:01:20.094Z,13.35
2022-10-14T15:04:12.370Z,13.42
2022-10-14T15:06:50.801Z,13.46
2022-10-14T15:09:32.011Z,13.41
2022-10-14T15:12:01.819Z,13.31
2022-10-14T15:14:46.765Z,13.38
2022-10-14T15:17:39.516Z,13.36
2022-10-14T15:22:50.488Z,13.35
2022-10-14T15:25:30.771Z,13.32
2022-10-14T15:28:01.942Z,13.30
2022-10-14T15:30:34.900Z,13.33
2022-10-14T15:33:16.465Z,13.35
2022-10-14T15:35:45.472Z,13.34
2022-10-14T15:38:17.240Z,13.35
2022-10-14T15:40:45.423Z,13.34
2022-10-14T15:43:16.699Z,13.33
2022-10-14T15:45:46.175Z,13.28
2022-10-14T15:48:19.991Z,13.16
2022-10-14T15:50:47.745Z,13.29
2022-10-14T15:53:14.915Z,13.24
2022-10-14T15:55:41.346Z,13.24
2022-10-14T15:58:07.802Z,13.27
2022-10-14T16:00:34.425Z,13.25
2022-10-14T16:03:00.900Z,13.22
2022-10-14T16:05:29.192Z,13.23
2022-10-14T16:07:57.328Z,13.17
2022-10-14T16:10:28.129Z,13.17
2022-10-14T16:12:57.039Z,13.15
2022-10-14T16:15:31.514Z,13.12
2022-10-14T16:17:58.227Z,13.11
2022-10-14T16:20:26.949Z,13.10
2022-10-14T16:22:53.796Z,13.09
2022-10-14T16:25:31.710Z,13.10
2022-10-14T16:27:58.729Z,13.09
2022-10-14T16:30:25.551Z,13.06
2022-10-14T16:32:51.950Z,13.04
2022-10-14T16:35:18.332Z,13.01
2022-10-14T16:37:44.734Z,13.01
2022-10-14T16:40:12.711Z,13.02
2022-10-14T16:42:39.202Z,13.01
2022-10-14T16:45:06.254Z,13.03
2022-10-14T16:47:32.739Z,13.00
2022-10-14T16:49:59.755Z,12.96
2022-10-14T16:52:27.120Z,12.96
2022-10-14T16:54:53.582Z,12.89
2022-10-14T16:57:21.056Z,12.92
2022-10-14T16:59:47.441Z,12.83
2022-10-14T17:02:16.374Z,12.91
2022-10-14T17:04:46.233Z,12.92
2022-10-14T17:07:14.784Z,12.91
2022-10-14T17:09:41.146Z,12.87
2022-10-14T17:12:12.886Z,12.89
2022-10-14T17:14:40.760Z,12.86
2022-10-14T17:17:07.162Z,12.86
2022-10-14T17:19:33.608Z,12.81
2022-10-14T17:22:03.273Z,12.83
2022-10-14T17:24:30.055Z,12.83
2022-10-14T17:26:56.781Z,12.84
2022-10-14T17:29:23.229Z,12.78
2022-10-14T17:31:50.578Z,12.78
2022-10-14T17:34:17.084Z,12.79
2022-10-14T17:36:43.629Z,12.75
2022-10-14T17:39:18.656Z,12.76
2022-10-14T17:41:50.867Z,12.74
2022-10-14T17:44:17.349Z,12.74
2022-10-14T17:46:43.912Z,12.74
2022-10-14T17:49:10.872Z,12.76
2022-10-14T17:51:38.550Z,12.75
2022-10-14T17:54:07.858Z,12.77
2022-10-14T17:56:36.417Z,12.77
2022-10-14T17:59:08.178Z,12.77
2022-10-14T18:02:02.082Z,12.73
2022-10-14T18:04:21.502Z,12.76
2022-10-14T18:06:48.479Z,12.73
2022-10-14T18:09:14.983Z,12.74
2022-10-14T18:14:30.069Z,12.66
2022-10-14T18:16:56.642Z,12.74
2022-10-14T18:19:23.092Z,12.74
2022-10-14T18:21:49.485Z,12.73
2022-10-14T18:24:15.985Z,12.72
2022-10-14T18:26:42.485Z,12.71
2022-10-14T18:29:09.098Z,12.72
2022-10-14T18:31:36.727Z,12.74
2022-10-14T18:34:03.781Z,12.73
2022-10-14T18:36:33.014Z,12.60
2022-10-14T18:39:02.560Z,12.72
2022-10-14T18:41:30.377Z,12.71
2022-10-14T18:43:59.713Z,12.71
2022-10-14T18:46:29.388Z,12.67
2022-10-14T18:48:57.587Z,12.68
2022-10-14T18:51:33.248Z,12.61
2022-10-14T18:54:13.070Z,12.65
2022-10-14T18:56:56.058Z,12.61
2022-10-14T18:59:29.581Z,12.57
2022-10-14T19:01:56.094Z,12.62
2022-10-14T19:04:25.609Z,12.60
2022-10-14T19:06:52.119Z,12.60
2022-10-14T19:09:21.655Z,12.60
2022-10-14T19:11:51.763Z,12.57
2022-10-14T19:14:18.198Z,12.55
2022-10-14T19:16:47.270Z,12.52
2022-10-14T19:19:17.926Z,12.52
2022-10-14T19:21:46.078Z,12.44
2022-10-14T19:24:13.631Z,12.49
2022-10-14T19:26:45.423Z,12.27
2022-10-14T19:29:14.189Z,12.47
2022-10-14T19:31:42.262Z,12.43
2022-10-14T19:34:11.845Z,12.45
2022-10-14T19:36:39.570Z,12.40
2022-10-14T19:39:08.345Z,12.37
2022-10-14T19:41:43.198Z,12.35
2022-10-14T19:44:09.894Z,12.27
2022-10-14T19:46:36.534Z,12.33
2022-10-14T19:49:04.284Z,12.34
2022-10-14T19:51:34.582Z,12.30
2022-10-14T19:54:01.389Z,12.28
2022-10-14T19:56:28.707Z,12.21
2022-10-14T19:58:57.503Z,12.24
2022-10-14T20:01:26.613Z,12.22
2022-10-14T20:03:53.732Z,12.17
2022-10-14T20:06:21.714Z,12.17
2022-10-14T20:08:48.464Z,12.10
2022-10-14T20:11:17.193Z,12.08
2022-10-14T20:13:44.727Z,12.05
2022-10-14T20:16:12.105Z,12.02
2022-10-14T20:18:38.692Z,11.92
2022-10-14T20:21:06.498Z,11.96
2022-10-14T20:23:35.078Z,11.92
2022-10-14T20:26:03.046Z,11.90
2022-10-14T20:28:29.568Z,11.84
2022-10-14T20:30:57.366Z,11.82
2022-10-14T20:33:24.810Z,11.76
2022-10-14T20:36:10.009Z,11.70
2022-10-14T20:38:38.673Z,11.78
2022-10-14T20:41:09.549Z,11.84
2022-10-14T20:43:35.999Z,11.81
2022-10-14T20:46:02.450Z,11.85
2022-10-14T20:48:28.894Z,11.83
2022-10-14T20:50:55.332Z,11.86
2022-10-14T20:53:22.631Z,11.83
2022-10-14T20:55:49.081Z,11.80
2022-10-14T20:58:16.355Z,11.88
2022-10-14T21:00:42.744Z,11.85
2022-10-14T21:03:09.167Z,11.85
2022-10-14T21:05:37.570Z,11.84
2022-10-14T21:08:04.759Z,11.85
2022-10-14T21:10:31.123Z,11.89
2022-10-14T21:12:57.525Z,11.87
2022-10-14T21:15:26.833Z,11.90
2022-10-14T21:17:53.849Z,11.88
2022-10-14T21:20:20.272Z,11.90
2022-10-14T21:22:46.717Z,11.94
2022-10-14T21:25:13.883Z,11.93
2022-10-14T21:27:40.338Z,11.93
2022-10-14T21:30:07.242Z,11.96
2022-10-14T21:32:33.745Z,11.93
2022-10-14T21:35:00.237Z,11.95
2022-10-14T21:37:26.663Z,12.00
2022-10-14T21:39:53.037Z,12.02
2022-10-14T21:42:19.679Z,11.94
2022-10-14T21:44:46.139Z,12.05
2022-10-14T21:47:12.522Z,12.06
2022-10-14T21:49:39.938Z,11.99
2022-10-14T21:52:06.283Z,12.08
2022-10-14T21:54:32.694Z,12.11
2022-10-14T21:56:59.057Z,12.12
2022-10-14T21:59:26.484Z,12.15
2022-10-14T22:01:56.475Z,12.16
2022-10-14T22:04:22.926Z,12.17
2022-10-14T22:06:49.281Z,12.18
2022-10-14T22:09:15.694Z,12.20
2022-10-14T22:11:42.415Z,12.23
2022-10-14T22:14:17.024Z,12.24
2022-10-14T22:16:44.880Z,12.26
2022-10-14T22:19:12.859Z,12.23
2022-10-14T22:21:41.366Z,12.25
2022-10-14T22:24:09.292Z,12.27
2022-10-14T22:26:37.570Z,12.25
2022-10-14T22:29:12.963Z,12.24
2022-10-14T22:31:39.981Z,12.23
2022-10-14T22:34:07.908Z,12.23
2022-10-14T22:36:35.282Z,12.24
2022-10-14T22:39:05.081Z,12.11
2022-10-14T22:41:35.488Z,12.19
2022-10-14T22:44:03.547Z,12.18
2022-10-14T22:46:33.137Z,12.16
2022-10-14T22:49:00.860Z,12.15
2022-10-14T22:51:40.609Z,12.12
2022-10-14T22:54:07.261Z,12.15
2022-10-14T22:56:33.788Z,12.14
2022-10-14T22:59:03.590Z,12.15
2022-10-14T23:01:30.627Z,12.16
2022-10-14T23:03:57.919Z,12.11
2022-10-14T23:06:25.083Z,12.12
2022-10-14T23:08:51.590Z,12.06
2022-10-14T23:11:20.839Z,12.05
2022-10-14T23:13:47.563Z,12.01
2022-10-14T23:16:16.855Z,12.01
2022-10-14T23:18:43.879Z,11.99
2022-10-14T23:21:17.281Z,11.97
2022-10-14T23:23:44.536Z,11.95
2022-10-14T23:26:13.183Z,11.95
2022-10-14T23:28:40.606Z,11.94
2022-10-14T23:31:12.344Z,11.91
2022-10-14T23:33:39.695Z,11.89
2022-10-14T23:36:08.219Z,11.82
2022-10-14T23:38:34.832Z,11.89
2022-10-14T23:41:02.904Z,11.88
2022-10-14T23:43:30.399Z,11.90
2022-10-14T23:45:56.845Z,11.91
2022-10-14T23:48:24.014Z,11.92
2022-10-14T23:50:50.747Z,11.92
2022-10-14T23:53:17.843Z,11.94
2022-10-14T23:55:44.337Z,11.91
2022-10-14T23:58:10.855Z,11.95
